Time;durP1;ratioP1;P1;durP2;ratioP2;P2;SDS_P1;SDS_P2;PMS_P1;PMS_P2;Temp;Humidity;BMP_temperature;BMP_pressure;BME280_temperature;BME280_humidity;BME280_pressure;Samples;Min_cycle;Max_cycle;Signal;HPM_P1;HPM_P2
2022/10/26 00:01:18;;;;;;;;;;;15.50;99.90;;;;;;5053239;28;19909;-76
2022/10/26 00:03:44;;;;;;;;;;;15.50;99.90;;;;;;5035288;28;20382;-78
2022/10/26 00:06:14;;;;;;;;;;;15.60;99.90;;;;;;5053179;28;19904;-78
2022/10/26 00:08:40;;;;;;;;;;;15.50;99.90;;;;;;5053727;28;19905;-76
2022/10/26 00:11:06;;;;;;;;;;;15.50;99.90;;;;;;5053115;28;19920;-78
2022/10/26 00:13:32;;;;;;;;;;;15.50;99.90;;;;;;5053127;28;19954;-78
2022/10/26 00:15:58;;;;;;;;;;;15.50;99.90;;;;;;5053380;28;19916;-79
2022/10/26 00:18:23;;;;;;;;;;;15.50;99.90;;;;;;5053077;28;19905;-79
2022/10/26 00:20:49;;;;;;;;;;;15.50;99.90;;;;;;5053310;28;19912;-79
2022/10/26 00:23:14;;;;;;;;;;;15.50;99.90;;;;;;5056523;28;19909;-79
2022/10/26 00:25:40;;;;;;;;;;;15.50;99.90;;;;;;5056774;28;20004;-78
2022/10/26 00:28:05;;;;;;;;;;;15.50;99.90;;;;;;5056924;28;19905;-77
2022/10/26 00:30:31;;;;;;;;;;;15.60;99.90;;;;;;5056893;28;19912;-76
2022/10/26 00:32:56;;;;;;;;;;;15.70;99.90;;;;;;5056443;28;19909;-76
2022/10/26 00:35:21;;;;;;;;;;;15.70;99.90;;;;;;5056800;28;20307;-77
2022/10/26 00:37:47;;;;;;;;;;;15.70;99.90;;;;;;5056838;28;19931;-77
2022/10/26 00:40:12;;;;;;;;;;;15.70;99.90;;;;;;5056438;28;19905;-80
2022/10/26 00:42:38;;;;;;;;;;;15.80;99.90;;;;;;5056894;28;19974;-79
2022/10/26 00:45:17;;;;;;;;;;;15.70;99.90;;;;;;5056344;28;19904;-78
2022/10/26 00:47:45;;;;;;;;;;;15.80;99.90;;;;;;5056656;28;20257;-76
2022/10/26 00:50:14;;;;;;;;;;;15.80;99.90;;;;;;5056243;28;19912;-77
2022/10/26 00:52:40;;;;;;;;;;;15.70;99.90;;;;;;5056220;28;19911;-77
2022/10/26 00:55:06;;;;;;;;;;;15.70;99.90;;;;;;5038264;28;19905;-78
2022/10/26 00:57:32;;;;;;;;;;;15.70;99.90;;;;;;5055688;28;19911;-79
2022/10/26 00:59:58;;;;;;;;;;;15.70;99.90;;;;;;5056182;28;19908;-77
2022/10/26 01:02:24;;;;;;;;;;;15.70;99.90;;;;;;5056537;28;19909;-77
2022/10/26 01:04:50;;;;;;;;;;;15.70;99.90;;;;;;5056271;28;20375;-78
2022/10/26 01:07:15;;;;;;;;;;;15.70;99.90;;;;;;5056022;28;19912;-77
2022/10/26 01:09:41;;;;;;;;;;;15.60;99.90;;;;;;5038035;28;19905;-77
2022/10/26 01:12:07;;;;;;;;;;;15.70;99.90;;;;;;5056417;28;20014;-76
2022/10/26 01:14:32;;;;;;;;;;;15.70;99.90;;;;;;5055791;28;19908;-77
2022/10/26 01:17:07;;;;;;;;;;;15.70;99.90;;;;;;5056360;28;19904;-77
2022/10/26 01:19:38;;;;;;;;;;;15.70;99.90;;;;;;5055794;28;19987;-77
2022/10/26 01:22:11;;;;;;;;;;;15.70;99.90;;;;;;5055596;28;20418;-77
2022/10/26 01:24:39;;;;;;;;;;;15.70;99.90;;;;;;5056211;28;19905;-78
2022/10/26 01:27:23;;;;;;;;;;;15.70;99.90;;;;;;5037696;28;19991;-78
2022/10/26 01:29:49;;;;;;;;;;;15.70;99.90;;;;;;5055824;28;19905;-77
2022/10/26 01:32:28;;;;;;;;;;;15.70;99.90;;;;;;5055394;28;19927;-77
2022/10/26 01:35:06;;;;;;;;;;;15.70;99.90;;;;;;5054838;28;19904;-77
2022/10/26 01:37:35;;;;;;;;;;;15.70;99.90;;;;;;5054175;28;20403;-76
2022/10/26 01:40:12;;;;;;;;;;;15.60;99.90;;;;;;5055603;28;19905;-77
2022/10/26 01:42:41;;;;;;;;;;;15.70;99.90;;;;;;5055491;28;20383;-77
2022/10/26 01:45:08;;;;;;;;;;;15.70;99.90;;;;;;5055530;28;19905;-79
2022/10/26 01:47:35;;;;;;;;;;;15.70;99.90;;;;;;5055138;28;19905;-78
2022/10/26 01:50:02;;;;;;;;;;;15.80;99.90;;;;;;5055206;28;19905;-76
2022/10/26 01:52:28;;;;;;;;;;;15.80;99.90;;;;;;5055070;28;20288;-77
2022/10/26 01:55:00;;;;;;;;;;;15.80;99.90;;;;;;5055351;28;19904;-77
2022/10/26 01:57:26;;;;;;;;;;;15.80;99.90;;;;;;5054967;28;19904;-76
2022/10/26 02:00:09;;;;;;;;;;;15.80;99.90;;;;;;5054903;28;19999;-76
2022/10/26 02:02:43;;;;;;;;;;;15.70;99.90;;;;;;5055069;28;19909;-79
2022/10/26 02:05:13;;;;;;;;;;;15.70;99.90;;;;;;5054826;28;19991;-76
2022/10/26 02:07:38;;;;;;;;;;;15.70;99.90;;;;;;5054545;28;19904;-78
2022/10/26 02:10:22;;;;;;;;;;;15.70;99.90;;;;;;5054787;28;19905;-80
2022/10/26 02:12:59;;;;;;;;;;;15.70;99.90;;;;;;5054967;28;19934;-77
2022/10/26 02:15:29;;;;;;;;;;;15.70;99.90;;;;;;5054670;28;19940;-77
2022/10/26 02:17:59;;;;;;;;;;;15.60;99.90;;;;;;5036698;28;20298;-77
2022/10/26 02:20:37;;;;;;;;;;;15.60;99.90;;;;;;5054524;28;20049;-76
2022/10/26 02:23:05;;;;;;;;;;;15.60;99.90;;;;;;5054402;28;19954;-78
2022/10/26 02:25:32;;;;;;;;;;;15.60;99.90;;;;;;5054763;28;20272;-80
2022/10/26 02:28:03;;;;;;;;;;;15.50;99.90;;;;;;5054394;28;19909;-79
2022/10/26 02:30:29;;;;;;;;;;;15.50;99.90;;;;;;5054947;28;19911;-77
2022/10/26 02:32:56;;;;;;;;;;;15.50;99.90;;;;;;5054403;28;19905;-80
2022/10/26 02:35:24;;;;;;;;;;;15.50;99.90;;;;;;5054158;28;19908;-79
2022/10/26 02:37:51;;;;;;;;;;;15.50;99.90;;;;;;5054398;28;19935;-79
2022/10/26 02:40:17;;;;;;;;;;;15.50;99.90;;;;;;5054198;28;19905;-79
2022/10/26 02:42:44;;;;;;;;;;;15.50;99.90;;;;;;5053940;28;19912;-79
2022/10/26 02:45:11;;;;;;;;;;;15.50;99.90;;;;;;5053480;28;19905;-79
2022/10/26 02:47:36;;;;;;;;;;;15.40;99.90;;;;;;5054070;28;19927;-79
2022/10/26 02:50:02;;;;;;;;;;;15.40;99.90;;;;;;5054071;28;20356;-80
2022/10/26 02:52:47;;;;;;;;;;;15.40;99.90;;;;;;5054278;28;19912;-79
2022/10/26 02:55:19;;;;;;;;;;;15.40;99.90;;;;;;5035883;28;19905;-79
2022/10/26 02:57:46;;;;;;;;;;;15.40;99.90;;;;;;5053895;28;19905;-77
2022/10/26 03:00:14;;;;;;;;;;;15.40;99.90;;;;;;5053877;28;19905;-79
2022/10/26 03:02:43;;;;;;;;;;;15.40;99.90;;;;;;5054308;28;19962;-80
2022/10/26 03:05:18;;;;;;;;;;;15.40;99.90;;;;;;5053818;28;19953;-77
2022/10/26 03:07:43;;;;;;;;;;;15.40;99.90;;;;;;5054368;28;20360;-77
2022/10/26 03:10:09;;;;;;;;;;;15.40;99.90;;;;;;5053758;28;19950;-77
2022/10/26 03:12:35;;;;;;;;;;;15.40;99.90;;;;;;5053747;28;19962;-79
2022/10/26 03:15:00;;;;;;;;;;;15.40;99.90;;;;;;5053727;28;19905;-78
2022/10/26 03:17:26;;;;;;;;;;;15.40;99.90;;;;;;5053647;28;20038;-78
2022/10/26 03:19:51;;;;;;;;;;;15.40;99.90;;;;;;5053631;28;20345;-77
2022/10/26 03:22:17;;;;;;;;;;;15.40;99.90;;;;;;5053521;28;19920;-79
2022/10/26 03:24:42;;;;;;;;;;;15.30;99.90;;;;;;5053563;28;20254;-79
2022/10/26 03:27:08;;;;;;;;;;;15.30;99.90;;;;;;5053817;28;19995;-79
2022/10/26 03:29:33;;;;;;;;;;;15.30;99.90;;;;;;5053472;28;19905;-78
2022/10/26 03:31:59;;;;;;;;;;;15.30;99.90;;;;;;5053447;28;19904;-78
2022/10/26 03:34:24;;;;;;;;;;;15.30;99.90;;;;;;5055740;28;19904;-77
2022/10/26 03:36:50;;;;;;;;;;;15.30;99.90;;;;;;5053508;28;19912;-79
2022/10/26 03:39:15;;;;;;;;;;;15.30;99.90;;;;;;5035611;28;19909;-78
2022/10/26 03:41:41;;;;;;;;;;;15.30;99.90;;;;;;5054074;28;20380;-80
2022/10/26 03:44:06;;;;;;;;;;;15.30;99.90;;;;;;5054726;28;20323;-78
2022/10/26 03:46:32;;;;;;;;;;;15.30;99.90;;;;;;5053669;28;19956;-78
2022/10/26 03:48:57;;;;;;;;;;;15.30;99.90;;;;;;5053328;28;19909;-79
2022/10/26 03:51:23;;;;;;;;;;;15.20;99.90;;;;;;5053309;28;19905;-79
2022/10/26 03:53:48;;;;;;;;;;;15.20;99.90;;;;;;5053584;28;20276;-77
2022/10/26 03:56:14;;;;;;;;;;;15.20;99.90;;;;;;5053735;28;20352;-76
2022/10/26 03:58:39;;;;;;;;;;;15.20;99.90;;;;;;5039389;28;19908;-78
2022/10/26 04:01:05;;;;;;;;;;;15.20;99.90;;;;;;5057171;28;19905;-79
2022/10/26 04:03:30;;;;;;;;;;;15.30;99.90;;;;;;5057340;28;20277;-79
2022/10/26 04:05:59;;;;;;;;;;;15.20;99.90;;;;;;5057106;28;19943;-78
2022/10/26 04:08:24;;;;;;;;;;;15.20;99.90;;;;;;5057653;28;19912;-77
2022/10/26 04:10:50;;;;;;;;;;;15.20;99.90;;;;;;5057320;28;20345;-77
2022/10/26 04:13:15;;;;;;;;;;;15.20;99.90;;;;;;5056952;28;19905;-79
2022/10/26 04:15:42;;;;;;;;;;;15.30;99.90;;;;;;5039084;28;19948;-77
2022/10/26 04:18:07;;;;;;;;;;;15.20;99.90;;;;;;5057166;28;19905;-77
2022/10/26 04:20:35;;;;;;;;;;;15.20;99.90;;;;;;5056851;28;19912;-77
2022/10/26 04:23:05;;;;;;;;;;;15.20;99.90;;;;;;5057309;28;19959;-78
2022/10/26 04:25:32;;;;;;;;;;;15.20;99.90;;;;;;5056728;28;19905;-79
2022/10/26 04:27:57;;;;;;;;;;;15.20;99.90;;;;;;5056997;28;19909;-79
2022/10/26 04:30:23;;;;;;;;;;;15.20;99.90;;;;;;5056623;28;19926;-77
2022/10/26 04:32:49;;;;;;;;;;;15.10;99.90;;;;;;5056552;28;19912;-77
2022/10/26 04:35:14;;;;;;;;;;;15.10;99.90;;;;;;5057174;28;19952;-79
2022/10/26 04:37:40;;;;;;;;;;;15.10;99.90;;;;;;5056181;28;20380;-79
2022/10/26 04:40:05;;;;;;;;;;;15.10;99.90;;;;;;5038596;28;19905;-79
2022/10/26 04:42:38;;;;;;;;;;;15.10;99.90;;;;;;5056944;28;20265;-76
2022/10/26 04:45:04;;;;;;;;;;;15.10;99.90;;;;;;5056420;28;19909;-76
2022/10/26 04:47:29;;;;;;;;;;;15.10;99.90;;;;;;5056623;28;20313;-76
2022/10/26 04:49:55;;;;;;;;;;;15.10;99.90;;;;;;5056317;28;19905;-77
2022/10/26 04:52:20;;;;;;;;;;;15.10;99.90;;;;;;5056510;28;20464;-76
2022/10/26 04:54:46;;;;;;;;;;;15.00;99.90;;;;;;5056528;28;19996;-76
2022/10/26 04:57:11;;;;;;;;;;;15.00;99.90;;;;;;5056149;28;19975;-76
2022/10/26 04:59:37;;;;;;;;;;;15.00;99.90;;;;;;5056429;28;19908;-77
2022/10/26 05:02:02;;;;;;;;;;;15.10;99.90;;;;;;5056020;28;19911;-79
2022/10/26 05:04:28;;;;;;;;;;;15.10;99.90;;;;;;5056042;28;20388;-79
2022/10/26 05:06:53;;;;;;;;;;;15.10;99.90;;;;;;5055982;28;19938;-78
2022/10/26 05:09:19;;;;;;;;;;;15.10;99.90;;;;;;5055686;28;19904;-77
2022/10/26 05:11:44;;;;;;;;;;;15.00;99.90;;;;;;5055905;28;19912;-77
2022/10/26 05:14:11;;;;;;;;;;;15.00;99.90;;;;;;5055887;28;19912;-77
2022/10/26 05:16:37;;;;;;;;;;;15.10;99.90;;;;;;5056075;28;19905;-79
2022/10/26 05:19:03;;;;;;;;;;;15.10;99.90;;;;;;5055746;28;19968;-76
2022/10/26 05:21:29;;;;;;;;;;;15.10;99.90;;;;;;5055985;28;19912;-77
2022/10/26 05:23:54;;;;;;;;;;;15.10;99.90;;;;;;5037725;28;20007;-77
2022/10/26 05:26:22;;;;;;;;;;;15.00;99.90;;;;;;5055610;28;19909;-78
2022/10/26 05:28:48;;;;;;;;;;;15.10;99.90;;;;;;5055600;28;19908;-77
2022/10/26 05:31:14;;;;;;;;;;;15.10;99.90;;;;;;5055845;28;20444;-78
2022/10/26 05:33:39;;;;;;;;;;;15.20;99.90;;;;;;5055374;28;19905;-79
2022/10/26 05:36:05;;;;;;;;;;;15.20;99.90;;;;;;5055255;28;20403;-77
2022/10/26 05:38:31;;;;;;;;;;;15.20;99.90;;;;;;5055695;28;20357;-79
2022/10/26 05:40:57;;;;;;;;;;;15.20;99.90;;;;;;5055369;28;19952;-78
2022/10/26 05:43:23;;;;;;;;;;;15.20;99.90;;;;;;5055207;28;19913;-77
2022/10/26 05:45:49;;;;;;;;;;;15.30;99.90;;;;;;5055312;28;20373;-77
2022/10/26 05:48:15;;;;;;;;;;;15.30;99.90;;;;;;5055195;28;19905;-76
2022/10/26 05:50:41;;;;;;;;;;;15.30;99.90;;;;;;5055140;28;19988;-77
2022/10/26 05:53:06;;;;;;;;;;;15.30;99.90;;;;;;5055109;28;19904;-77
2022/10/26 05:55:32;;;;;;;;;;;15.40;99.90;;;;;;5055346;28;19952;-77
2022/10/26 05:57:58;;;;;;;;;;;15.40;99.90;;;;;;5054959;28;20420;-78
2022/10/26 06:00:25;;;;;;;;;;;15.40;99.90;;;;;;5055254;28;20390;-79
2022/10/26 06:03:09;;;;;;;;;;;15.40;99.90;;;;;;5055126;28;19912;-77
2022/10/26 06:05:37;;;;;;;;;;;15.40;99.90;;;;;;5054858;28;19951;-79
2022/10/26 06:08:07;;;;;;;;;;;15.50;99.90;;;;;;5055317;28;19904;-78
2022/10/26 06:10:32;;;;;;;;;;;15.50;99.90;;;;;;5054680;28;20352;-77
2022/10/26 06:12:58;;;;;;;;;;;15.50;99.90;;;;;;5054710;28;19909;-77
2022/10/26 06:15:24;;;;;;;;;;;15.50;99.90;;;;;;5054609;28;19905;-77
2022/10/26 06:17:58;;;;;;;;;;;15.50;99.90;;;;;;5054898;28;19905;-76
2022/10/26 06:20:26;;;;;;;;;;;15.60;99.90;;;;;;5054369;28;19947;-78
2022/10/26 06:23:00;;;;;;;;;;;15.50;99.90;;;;;;5054469;28;20369;-76
2022/10/26 06:25:28;;;;;;;;;;;15.60;99.90;;;;;;5054991;28;20288;-75
2022/10/26 06:28:06;;;;;;;;;;;15.50;99.90;;;;;;5054442;28;19905;-76
2022/10/26 06:30:31;;;;;;;;;;;15.60;99.90;;;;;;5054451;28;19930;-76
2022/10/26 06:32:58;;;;;;;;;;;15.60;99.90;;;;;;5054246;28;19912;-77
2022/10/26 06:35:23;;;;;;;;;;;15.50;99.90;;;;;;5054610;28;19927;-79
2022/10/26 06:37:49;;;;;;;;;;;15.50;99.90;;;;;;5054122;28;20276;-75
2022/10/26 06:40:16;;;;;;;;;;;15.50;99.90;;;;;;5054506;28;19920;-77
2022/10/26 06:42:42;;;;;;;;;;;15.60;99.90;;;;;;5054049;28;19917;-77
2022/10/26 06:45:14;;;;;;;;;;;15.50;99.90;;;;;;5036266;28;19905;-76
2022/10/26 06:47:58;;;;;;;;;;;15.60;99.90;;;;;;5054106;28;19904;-76
2022/10/26 06:50:33;;;;;;;;;;;15.60;99.90;;;;;;5036156;28;19905;-77
2022/10/26 06:53:17;;;;;;;;;;;15.60;99.90;;;;;;5054010;28;19916;-76
2022/10/26 06:55:44;;;;;;;;;;;15.60;99.90;;;;;;5036085;28;19999;-78
2022/10/26 06:58:14;;;;;;;;;;;15.70;99.90;;;;;;5054205;28;19912;-78
2022/10/26 07:00:40;;;;;;;;;;;15.70;99.90;;;;;;5053928;28;19919;-79
2022/10/26 07:03:06;;;;;;;;;;;15.70;99.90;;;;;;5054045;28;20241;-76
2022/10/26 07:05:32;;;;;;;;;;;15.70;99.90;;;;;;5053844;28;19911;-77
2022/10/26 07:07:57;;;;;;;;;;;15.70;99.90;;;;;;5054311;28;19905;-79
2022/10/26 07:10:23;;;;;;;;;;;15.70;99.90;;;;;;5054280;28;20004;-77
2022/10/26 07:12:48;;;;;;;;;;;15.70;99.90;;;;;;5035899;28;20345;-79
2022/10/26 07:15:14;;;;;;;;;;;15.80;99.90;;;;;;5053721;28;19904;-75
2022/10/26 07:17:44;;;;;;;;;;;15.70;99.90;;;;;;5053972;28;19904;-78
2022/10/26 07:20:10;;;;;;;;;;;15.70;99.90;;;;;;5053633;28;20332;-77
2022/10/26 07:22:36;;;;;;;;;;;15.70;99.90;;;;;;5054082;28;19940;-75
2022/10/26 07:25:02;;;;;;;;;;;15.70;99.90;;;;;;5053896;28;19983;-78
2022/10/26 07:27:27;;;;;;;;;;;15.60;99.90;;;;;;5054147;28;19955;-79
2022/10/26 07:29:53;;;;;;;;;;;15.60;99.90;;;;;;5035653;28;19956;-79
2022/10/26 07:32:18;;;;;;;;;;;15.60;99.90;;;;;;5040345;28;19905;-77
2022/10/26 07:34:43;;;;;;;;;;;15.60;99.90;;;;;;5060181;28;19905;-76
2022/10/26 07:37:09;;;;;;;;;;;15.60;99.90;;;;;;5038717;28;19913;-78
2022/10/26 07:39:34;;;;;;;;;;;15.70;99.90;;;;;;5040440;28;19905;-79
2022/10/26 07:42:00;;;;;;;;;;;15.70;99.90;;;;;;5040070;28;19905;-76
2022/10/26 07:44:25;;;;;;;;;;;15.70;99.90;;;;;;5040151;28;19991;-78
2022/10/26 07:46:51;;;;;;;;;;;15.80;99.90;;;;;;5040383;28;20365;-77
2022/10/26 07:49:17;;;;;;;;;;;15.70;99.90;;;;;;5040030;28;19905;-77
2022/10/26 07:51:43;;;;;;;;;;;15.80;99.90;;;;;;5039696;28;19905;-76
2022/10/26 07:54:08;;;;;;;;;;;15.80;99.90;;;;;;5039961;28;19912;-76
2022/10/26 07:56:34;;;;;;;;;;;15.80;99.90;;;;;;5039904;28;20048;-77
2022/10/26 07:58:59;;;;;;;;;;;15.80;99.90;;;;;;5039946;28;19905;-78
2022/10/26 08:01:25;;;;;;;;;;;15.80;99.90;;;;;;5039962;28;19912;-79
2022/10/26 08:03:52;;;;;;;;;;;15.80;99.90;;;;;;5040161;28;20361;-76
2022/10/26 08:06:17;;;;;;;;;;;15.80;99.90;;;;;;5039942;28;20376;-79
2022/10/26 08:08:43;;;;;;;;;;;15.90;99.90;;;;;;5040961;28;19991;-78
2022/10/26 08:11:08;;;;;;;;;;;16.00;99.90;;;;;;5038588;28;19991;-77
2022/10/26 08:13:34;;;;;;;;;;;16.10;99.90;;;;;;5039575;28;19905;-77
2022/10/26 08:16:00;;;;;;;;;;;16.20;99.90;;;;;;5040090;28;20384;-76
2022/10/26 08:18:26;;;;;;;;;;;16.20;99.90;;;;;;5039799;28;19909;-78
2022/10/26 08:20:52;;;;;;;;;;;16.20;99.90;;;;;;5040053;28;19905;-77
2022/10/26 08:23:18;;;;;;;;;;;16.30;99.90;;;;;;5039746;28;19936;-78
2022/10/26 08:25:43;;;;;;;;;;;16.40;99.90;;;;;;5039795;28;19905;-78
2022/10/26 08:28:10;;;;;;;;;;;16.40;99.90;;;;;;5039975;28;20395;-79
2022/10/26 08:30:35;;;;;;;;;;;16.50;99.90;;;;;;5038123;28;19955;-78
2022/10/26 08:33:02;;;;;;;;;;;16.50;99.90;;;;;;5040195;28;19905;-77
2022/10/26 08:35:27;;;;;;;;;;;16.60;99.90;;;;;;5039508;28;20410;-76
2022/10/26 08:37:53;;;;;;;;;;;16.70;99.90;;;;;;5056306;28;19913;-77
2022/10/26 08:40:20;;;;;;;;;;;16.80;99.90;;;;;;5059576;28;19928;-77
2022/10/26 08:42:49;;;;;;;;;;;16.70;99.90;;;;;;5058996;28;19913;-78
2022/10/26 08:45:27;;;;;;;;;;;16.70;99.90;;;;;;5056710;28;20314;-77
2022/10/26 08:47:54;;;;;;;;;;;16.60;99.90;;;;;;5056385;28;19969;-78
2022/10/26 08:50:29;;;;;;;;;;;16.60;99.90;;;;;;5056305;28;19904;-76
2022/10/26 08:53:02;;;;;;;;;;;16.60;99.90;;;;;;5056849;28;19953;-76
2022/10/26 08:55:32;;;;;;;;;;;16.60;99.90;;;;;;5056292;28;19908;-81
2022/10/26 08:58:00;;;;;;;;;;;16.50;99.90;;;;;;5056442;28;19947;-80
2022/10/26 09:00:26;;;;;;;;;;;16.50;99.90;;;;;;5056088;28;19904;-80
2022/10/26 09:02:52;;;;;;;;;;;16.50;99.90;;;;;;5038043;28;19908;-79
2022/10/26 09:05:21;;;;;;;;;;;16.50;99.90;;;;;;5056079;28;19998;-76
2022/10/26 09:07:46;;;;;;;;;;;16.50;99.90;;;;;;5056272;28;19905;-78
2022/10/26 09:10:17;;;;;;;;;;;16.50;99.90;;;;;;5056423;28;19912;-77
2022/10/26 09:12:56;;;;;;;;;;;16.60;99.90;;;;;;5056495;28;20273;-75
2022/10/26 09:15:38;;;;;;;;;;;16.60;99.90;;;;;;5055804;28;19912;-77
2022/10/26 09:18:07;;;;;;;;;;;16.60;99.90;;;;;;5056387;28;19905;-77
2022/10/26 09:20:39;;;;;;;;;;;16.70;99.90;;;;;;5055985;28;19951;-75
2022/10/26 09:23:05;;;;;;;;;;;16.70;99.90;;;;;;5056243;28;19908;-77
2022/10/26 09:25:37;;;;;;;;;;;16.70;99.90;;;;;;5055679;28;20352;-78
2022/10/26 09:28:03;;;;;;;;;;;16.80;99.90;;;;;;5056236;28;19904;-78
2022/10/26 09:30:29;;;;;;;;;;;16.90;99.90;;;;;;5055603;28;20319;-76
2022/10/26 09:32:58;;;;;;;;;;;16.80;99.90;;;;;;5055431;28;19905;-77
2022/10/26 09:35:26;;;;;;;;;;;16.70;99.90;;;;;;5037562;28;19909;-79
2022/10/26 09:38:11;;;;;;;;;;;16.70;99.90;;;;;;5055260;28;19919;-79
2022/10/26 09:40:56;;;;;;;;;;;16.70;99.90;;;;;;5054473;28;20353;-77
2022/10/26 09:43:24;;;;;;;;;;;16.70;99.90;;;;;;5055210;28;19980;-76
2022/10/26 09:45:50;;;;;;;;;;;16.80;99.90;;;;;;5055304;28;19905;-76
2022/10/26 09:48:21;;;;;;;;;;;16.90;99.90;;;;;;5055623;28;19904;-77
2022/10/26 09:50:48;;;;;;;;;;;17.10;99.90;;;;;;5055206;28;19905;-77
2022/10/26 09:53:13;;;;;;;;;;;17.20;99.90;;;;;;5055313;28;19904;-75
2022/10/26 09:55:45;;;;;;;;;;;17.20;99.90;;;;;;5054495;28;20420;-76
2022/10/26 09:58:12;;;;;;;;;;;17.30;99.90;;;;;;5055024;28;19928;-77
2022/10/26 10:00:39;;;;;;;;;;;17.30;99.90;;;;;;5055299;28;19924;-79
2022/10/26 10:03:17;;;;;;;;;;;17.20;99.90;;;;;;5054874;28;20006;-76
2022/10/26 10:05:42;;;;;;;;;;;17.30;99.90;;;;;;5055465;28;19911;-75
2022/10/26 10:08:09;;;;;;;;;;;17.40;99.90;;;;;;5054816;28;20295;-79
2022/10/26 10:10:34;;;;;;;;;;;17.50;99.90;;;;;;5055331;28;19908;-77
2022/10/26 10:13:13;;;;;;;;;;;17.60;99.90;;;;;;5054758;28;20275;-78
2022/10/26 10:15:38;;;;;;;;;;;17.80;99.90;;;;;;5055340;28;19968;-77
2022/10/26 10:18:04;;;;;;;;;;;17.80;99.90;;;;;;5054669;28;20011;-75
2022/10/26 10:20:30;;;;;;;;;;;18.00;99.90;;;;;;5054658;28;19905;-79
2022/10/26 10:22:57;;;;;;;;;;;17.90;99.90;;;;;;5054879;28;19909;-78
2022/10/26 10:25:30;;;;;;;;;;;17.80;99.90;;;;;;5036650;28;20325;-76
2022/10/26 10:27:55;;;;;;;;;;;17.80;99.90;;;;;;5054837;28;19970;-77
2022/10/26 10:30:22;;;;;;;;;;;17.80;99.90;;;;;;5054459;28;20253;-76
2022/10/26 10:33:03;;;;;;;;;;;17.80;99.90;;;;;;5036351;28;20003;-76
2022/10/26 10:35:28;;;;;;;;;;;17.80;99.90;;;;;;5054647;28;19913;-79
2022/10/26 10:37:54;;;;;;;;;;;17.90;99.90;;;;;;5054149;28;19912;-76
2022/10/26 10:40:22;;;;;;;;;;;18.00;99.90;;;;;;5054270;28;19954;-77
2022/10/26 10:42:49;;;;;;;;;;;18.10;99.90;;;;;;5054327;28;19913;-76
2022/10/26 10:45:24;;;;;;;;;;;18.10;99.90;;;;;;5054037;28;19947;-76
2022/10/26 10:48:08;;;;;;;;;;;18.20;99.90;;;;;;5054166;28;20426;-78
2022/10/26 10:50:35;;;;;;;;;;;18.30;99.90;;;;;;5054088;28;19905;-76
2022/10/26 10:53:15;;;;;;;;;;;18.40;99.90;;;;;;5054338;28;19904;-78
2022/10/26 10:55:44;;;;;;;;;;;18.40;99.90;;;;;;5053863;28;19904;-76
2022/10/26 10:58:28;;;;;;;;;;;18.40;99.90;;;;;;5054450;28;20288;-76
2022/10/26 11:00:54;;;;;;;;;;;18.40;99.90;;;;;;5053894;28;19904;-77
2022/10/26 11:03:23;;;;;;;;;;;18.50;99.90;;;;;;5054353;28;19970;-76
2022/10/26 11:06:04;;;;;;;;;;;18.50;99.90;;;;;;5053180;28;19909;-79
2022/10/26 11:08:42;;;;;;;;;;;18.40;99.90;;;;;;5054118;28;20353;-76
2022/10/26 11:11:13;;;;;;;;;;;18.40;99.90;;;;;;5053797;28;19954;-76
2022/10/26 11:13:50;;;;;;;;;;;18.40;99.90;;;;;;5054114;28;19952;-76
2022/10/26 11:16:19;;;;;;;;;;;18.40;99.90;;;;;;5053767;28;19905;-78
2022/10/26 11:18:51;;;;;;;;;;;18.40;99.90;;;;;;5053679;28;20364;-78
2022/10/26 11:21:22;;;;;;;;;;;18.40;99.90;;;;;;5053890;28;19904;-78
2022/10/26 11:24:10;;;;;;;;;;;18.40;99.90;;;;;;5053576;28;20065;-76
2022/10/26 11:26:38;;;;;;;;;;;18.30;99.90;;;;;;5053792;28;19905;-76
2022/10/26 11:29:09;;;;;;;;;;;18.30;99.90;;;;;;5053579;28;20424;-78
2022/10/26 11:31:41;;;;;;;;;;;18.40;99.90;;;;;;5054139;28;19904;-75
2022/10/26 11:34:15;;;;;;;;;;;18.50;99.90;;;;;;5053410;28;19908;-77
2022/10/26 11:36:42;;;;;;;;;;;18.60;99.90;;;;;;5053481;28;20391;-80
2022/10/26 11:39:17;;;;;;;;;;;18.70;99.90;;;;;;5053486;28;19995;-77
2022/10/26 11:41:47;;;;;;;;;;;18.70;99.90;;;;;;5053997;28;19912;-79
2022/10/26 11:44:16;;;;;;;;;;;18.80;99.90;;;;;;5053496;28;19913;-76
2022/10/26 11:46:44;;;;;;;;;;;18.70;99.90;;;;;;5053970;28;19959;-77
2022/10/26 11:49:16;;;;;;;;;;;18.70;99.90;;;;;;5053657;28;19954;-78
2022/10/26 11:51:51;;;;;;;;;;;18.70;99.90;;;;;;5053521;28;19905;-78
2022/10/26 11:54:20;;;;;;;;;;;18.70;99.90;;;;;;5053306;28;20391;-76
2022/10/26 11:56:50;;;;;;;;;;;18.70;99.90;;;;;;5053563;28;19905;-75
2022/10/26 11:59:20;;;;;;;;;;;18.70;99.90;;;;;;5035279;28;20296;-75
2022/10/26 12:01:47;;;;;;;;;;;18.80;99.90;;;;;;5053543;28;20398;-76
2022/10/26 12:04:13;;;;;;;;;;;18.80;99.90;;;;;;5053236;28;19913;-78
2022/10/26 12:06:39;;;;;;;;;;;18.80;99.90;;;;;;5053282;28;19913;-78
2022/10/26 12:09:11;;;;;;;;;;;18.80;99.90;;;;;;5035566;28;19889;-79
2022/10/26 12:11:44;;;;;;;;;;;18.80;99.90;;;;;;5053289;28;19912;-78
2022/10/26 12:14:18;;;;;;;;;;;18.80;99.90;;;;;;5053289;28;20324;-77
2022/10/26 12:16:47;;;;;;;;;;;18.80;99.90;;;;;;5053221;28;19905;-75
2022/10/26 12:19:15;;;;;;;;;;;18.70;99.90;;;;;;5056662;28;19912;-77
2022/10/26 12:21:42;;;;;;;;;;;18.60;99.90;;;;;;5038925;28;20352;-79
2022/10/26 12:24:25;;;;;;;;;;;18.60;99.90;;;;;;5056731;28;20003;-79
2022/10/26 12:26:57;;;;;;;;;;;18.50;99.90;;;;;;5056959;28;20284;-79
2022/10/26 12:29:23;;;;;;;;;;;18.60;99.90;;;;;;5056732;28;19912;-79
2022/10/26 12:31:48;;;;;;;;;;;18.60;99.90;;;;;;5057290;28;19909;-78
2022/10/26 12:34:21;;;;;;;;;;;18.70;99.90;;;;;;5056494;28;20280;-76
2022/10/26 12:36:49;;;;;;;;;;;18.80;99.90;;;;;;5038416;28;19917;-78
2022/10/26 12:39:35;;;;;;;;;;;19.00;99.90;;;;;;5038586;28;19930;-77
2022/10/26 12:42:03;;;;;;;;;;;19.10;99.90;;;;;;5057076;28;19904;-77
2022/10/26 12:44:47;;;;;;;;;;;19.10;99.90;;;;;;5056424;28;19964;-76
2022/10/26 12:47:28;;;;;;;;;;;19.10;99.90;;;;;;5038587;28;20344;-77
2022/10/26 12:50:02;;;;;;;;;;;19.20;99.90;;;;;;5056420;28;20258;-78
2022/10/26 12:52:28;;;;;;;;;;;19.30;99.90;;;;;;5056648;28;19915;-76
2022/10/26 12:55:09;;;;;;;;;;;19.20;99.90;;;;;;5056249;28;19904;-78
2022/10/26 12:57:53;;;;;;;;;;;19.20;99.90;;;;;;5038029;28;20368;-78
2022/10/26 13:00:23;;;;;;;;;;;19.20;99.90;;;;;;5056679;28;19908;-78
2022/10/26 13:03:13;;;;;;;;;;;19.20;99.90;;;;;;5038080;28;20341;-78
2022/10/26 13:05:54;;;;;;;;;;;19.30;99.90;;;;;;5056664;28;20314;-77
2022/10/26 13:08:19;;;;;;;;;;;19.30;99.90;;;;;;5056020;28;19905;-76
2022/10/26 13:11:00;;;;;;;;;;;19.30;99.90;;;;;;5056777;28;20345;-78
2022/10/26 13:13:28;;;;;;;;;;;19.30;99.90;;;;;;5038006;28;20405;-76
2022/10/26 13:15:56;;;;;;;;;;;19.30;99.90;;;;;;5056473;28;20007;-77
2022/10/26 13:18:22;;;;;;;;;;;19.20;99.90;;;;;;5037847;28;20324;-78
2022/10/26 13:20:57;;;;;;;;;;;19.20;99.90;;;;;;5055796;28;19934;-76
2022/10/26 13:23:24;;;;;;;;;;;19.40;99.90;;;;;;5055927;28;20361;-77
2022/10/26 13:26:02;;;;;;;;;;;19.70;99.90;;;;;;5055670;28;19905;-78
2022/10/26 13:28:30;;;;;;;;;;;19.80;99.90;;;;;;5055414;28;20361;-78
2022/10/26 13:30:56;;;;;;;;;;;19.80;99.90;;;;;;5054993;28;19909;-76
2022/10/26 13:33:23;;;;;;;;;;;19.80;99.90;;;;;;5055497;28;19911;-78
2022/10/26 13:35:51;;;;;;;;;;;19.90;99.90;;;;;;5056079;28;19909;-77
2022/10/26 13:38:18;;;;;;;;;;;20.00;99.90;;;;;;5055360;28;19974;-78
2022/10/26 13:40:44;;;;;;;;;;;19.90;99.90;;;;;;5055700;28;20390;-78
2022/10/26 13:43:14;;;;;;;;;;;20.00;99.90;;;;;;5055270;28;19913;-77
2022/10/26 13:45:48;;;;;;;;;;;20.00;99.90;;;;;;5056189;28;20258;-77
2022/10/26 13:48:15;;;;;;;;;;;19.90;99.90;;;;;;5055326;28;19905;-77
2022/10/26 13:50:44;;;;;;;;;;;20.00;99.90;;;;;;5055175;28;19905;-77
2022/10/26 13:53:30;;;;;;;;;;;20.10;99.90;;;;;;5055078;28;19904;-78
2022/10/26 13:56:08;;;;;;;;;;;20.20;99.90;;;;;;5054055;28;19916;-78
2022/10/26 13:58:52;;;;;;;;;;;20.20;99.90;;;;;;5055062;28;19905;-77
2022/10/26 14:01:23;;;;;;;;;;;20.30;99.90;;;;;;5037037;28;19915;-77
2022/10/26 14:03:49;;;;;;;;;;;20.30;99.90;;;;;;5055492;28;20335;-78
2022/10/26 14:06:18;;;;;;;;;;;20.20;99.90;;;;;;5054921;28;19905;-76
2022/10/26 14:08:46;;;;;;;;;;;20.10;99.90;;;;;;5054849;28;19905;-75
2022/10/26 14:11:13;;;;;;;;;;;20.00;99.90;;;;;;5055649;28;20388;-77
2022/10/26 14:13:39;;;;;;;;;;;19.90;99.90;;;;;;5054720;28;20284;-79
2022/10/26 14:16:08;;;;;;;;;;;20.00;99.90;;;;;;5054753;28;19905;-77
2022/10/26 14:18:35;;;;;;;;;;;20.00;99.90;;;;;;5055248;28;19905;-78
2022/10/26 14:21:05;;;;;;;;;;;20.10;99.90;;;;;;5054627;28;19905;-75
2022/10/26 14:23:35;;;;;;;;;;;20.20;99.90;;;;;;5054548;28;19931;-77
2022/10/26 14:26:01;;;;;;;;;;;20.20;99.90;;;;;;5054603;28;19912;-76